sensor_id;sensor_type;location;lat;lon;timestamp;P1;durP1;ratioP1;P2;durP2;ratioP2
43744;SDS011;29359;53.048;8.732;2024-02-21T00:00:00;26.00;;;11.75;;
43744;SDS011;29359;53.048;8.732;2024-02-21T00:02:02;27.15;;;12.82;;
43744;SDS011;29359;53.048;8.732;2024-02-21T00:04:04;23.40;;;12.13;;
43744;SDS011;29359;53.048;8.732;2024-02-21T00:06:06;28.25;;;12.55;;
43744;SDS011;29359;53.048;8.732;2024-02-21T00:08:07;19.90;;;10.93;;
43744;SDS011;29359;53.048;8.732;2024-02-21T00:10:09;28.60;;;12.82;;
43744;SDS011;29359;53.048;8.732;2024-02-21T00:12:11;29.20;;;12.82;;
43744;SDS011;29359;53.048;8.732;2024-02-21T00:14:15;29.77;;;13.50;;
43744;SDS011;29359;53.048;8.732;2024-02-21T00:16:17;30.52;;;14.82;;
43744;SDS011;29359;53.048;8.732;2024-02-21T00:18:19;32.97;;;13.32;;
43744;SDS011;29359;53.048;8.732;2024-02-21T00:20:21;24.60;;;13.02;;
43744;SDS011;29359;53.048;8.732;2024-02-21T00:22:23;26.10;;;13.13;;
43744;SDS011;29359;53.048;8.732;2024-02-21T00:24:25;36.92;;;15.35;;
43744;SDS011;29359;53.048;8.732;2024-02-21T00:26:26;35.85;;;15.50;;
43744;SDS011;29359;53.048;8.732;2024-02-21T00:28:28;32.03;;;15.38;;
43744;SDS011;29359;53.048;8.732;2024-02-21T00:30:30;27.95;;;14.52;;
43744;SDS011;29359;53.048;8.732;2024-02-21T00:32:32;34.67;;;15.25;;
43744;SDS011;29359;53.048;8.732;2024-02-21T00:34:36;34.28;;;15.10;;
43744;SDS011;29359;53.048;8.732;2024-02-21T00:36:38;31.52;;;15.25;;
43744;SDS011;29359;53.048;8.732;2024-02-21T00:38:39;35.55;;;15.50;;
43744;SDS011;29359;53.048;8.732;2024-02-21T00:40:41;32.92;;;14.60;;
43744;SDS011;29359;53.048;8.732;2024-02-21T00:42:43;36.88;;;17.05;;
43744;SDS011;29359;53.048;8.732;2024-02-21T00:44:45;28.63;;;14.52;;
43744;SDS011;29359;53.048;8.732;2024-02-21T00:46:47;29.55;;;15.00;;
43744;SDS011;29359;53.048;8.732;2024-02-21T00:48:49;27.30;;;15.23;;
43744;SDS011;29359;53.048;8.732;2024-02-21T00:50:52;33.42;;;16.92;;
43744;SDS011;29359;53.048;8.732;2024-02-21T00:52:53;26.63;;;14.18;;
43744;SDS011;29359;53.048;8.732;2024-02-21T00:54:55;33.00;;;14.85;;
43744;SDS011;29359;53.048;8.732;2024-02-21T00:56:57;29.42;;;14.48;;
43744;SDS011;29359;53.048;8.732;2024-02-21T00:58:59;30.25;;;14.88;;
43744;SDS011;29359;53.048;8.732;2024-02-21T01:01:01;33.63;;;15.27;;
43744;SDS011;29359;53.048;8.732;2024-02-21T01:03:03;29.52;;;14.65;;
43744;SDS011;29359;53.048;8.732;2024-02-21T01:05:05;31.58;;;15.68;;
43744;SDS011;29359;53.048;8.732;2024-02-21T01:07:07;28.25;;;14.85;;
43744;SDS011;29359;53.048;8.732;2024-02-21T01:09:10;28.85;;;14.60;;
43744;SDS011;29359;53.048;8.732;2024-02-21T01:11:12;34.65;;;15.70;;
43744;SDS011;29359;53.048;8.732;2024-02-21T01:13:14;36.13;;;14.73;;
43744;SDS011;29359;53.048;8.732;2024-02-21T01:15:16;35.15;;;15.73;;
43744;SDS011;29359;53.048;8.732;2024-02-21T01:17:18;28.60;;;14.63;;
43744;SDS011;29359;53.048;8.732;2024-02-21T01:19:19;31.90;;;14.93;;
43744;SDS011;29359;53.048;8.732;2024-02-21T01:21:21;32.95;;;15.73;;
43744;SDS011;29359;53.048;8.732;2024-02-21T01:23:23;36.83;;;14.43;;
43744;SDS011;29359;53.048;8.732;2024-02-21T01:25:25;33.42;;;14.85;;
43744;SDS011;29359;53.048;8.732;2024-02-21T01:27:26;30.80;;;15.30;;
43744;SDS011;29359;53.048;8.732;2024-02-21T01:29:28;30.23;;;15.93;;
43744;SDS011;29359;53.048;8.732;2024-02-21T01:31:30;28.17;;;14.50;;
43744;SDS011;29359;53.048;8.732;2024-02-21T01:33:32;27.75;;;14.35;;
43744;SDS011;29359;53.048;8.732;2024-02-21T01:35:36;28.48;;;14.40;;
43744;SDS011;29359;53.048;8.732;2024-02-21T01:37:38;35.35;;;14.27;;
43744;SDS011;29359;53.048;8.732;2024-02-21T01:39:40;38.75;;;14.23;;
43744;SDS011;29359;53.048;8.732;2024-02-21T01:41:42;29.75;;;14.55;;
43744;SDS011;29359;53.048;8.732;2024-02-21T01:43:43;26.00;;;14.27;;
43744;SDS011;29359;53.048;8.732;2024-02-21T01:45:46;30.50;;;15.13;;
43744;SDS011;29359;53.048;8.732;2024-02-21T01:47:51;36.25;;;15.00;;
43744;SDS011;29359;53.048;8.732;2024-02-21T01:49:53;29.77;;;14.15;;
43744;SDS011;29359;53.048;8.732;2024-02-21T01:51:55;33.38;;;14.95;;
43744;SDS011;29359;53.048;8.732;2024-02-21T01:53:57;28.48;;;13.90;;
43744;SDS011;29359;53.048;8.732;2024-02-21T01:56:00;33.05;;;14.82;;
43744;SDS011;29359;53.048;8.732;2024-02-21T01:58:03;25.92;;;14.35;;
43744;SDS011;29359;53.048;8.732;2024-02-21T02:00:05;34.83;;;14.25;;
43744;SDS011;29359;53.048;8.732;2024-02-21T02:02:08;28.02;;;13.43;;
43744;SDS011;29359;53.048;8.732;2024-02-21T02:04:10;31.13;;;13.50;;
43744;SDS011;29359;53.048;8.732;2024-02-21T02:06:12;34.58;;;13.57;;
43744;SDS011;29359;53.048;8.732;2024-02-21T02:08:14;26.45;;;14.18;;
43744;SDS011;29359;53.048;8.732;2024-02-21T02:10:17;28.35;;;13.95;;
43744;SDS011;29359;53.048;8.732;2024-02-21T02:12:19;29.33;;;13.40;;
43744;SDS011;29359;53.048;8.732;2024-02-21T02:14:20;22.23;;;12.80;;
43744;SDS011;29359;53.048;8.732;2024-02-21T02:16:22;25.50;;;13.80;;
43744;SDS011;29359;53.048;8.732;2024-02-21T02:18:24;27.92;;;14.02;;
43744;SDS011;29359;53.048;8.732;2024-02-21T02:20:26;28.10;;;14.00;;
43744;SDS011;29359;53.048;8.732;2024-02-21T02:22:28;28.98;;;14.57;;
43744;SDS011;29359;53.048;8.732;2024-02-21T02:24:33;27.15;;;13.52;;
43744;SDS011;29359;53.048;8.732;2024-02-21T02:26:35;34.00;;;13.45;;
43744;SDS011;29359;53.048;8.732;2024-02-21T02:28:37;24.52;;;13.20;;
43744;SDS011;29359;53.048;8.732;2024-02-21T02:30:39;30.13;;;14.65;;
43744;SDS011;29359;53.048;8.732;2024-02-21T02:32:44;39.00;;;15.73;;
43744;SDS011;29359;53.048;8.732;2024-02-21T02:34:46;28.63;;;13.90;;
43744;SDS011;29359;53.048;8.732;2024-02-21T02:36:48;29.42;;;14.13;;
43744;SDS011;29359;53.048;8.732;2024-02-21T02:38:50;28.17;;;14.35;;
43744;SDS011;29359;53.048;8.732;2024-02-21T02:40:52;28.25;;;14.07;;
43744;SDS011;29359;53.048;8.732;2024-02-21T02:42:54;29.05;;;13.32;;
43744;SDS011;29359;53.048;8.732;2024-02-21T02:44:59;29.00;;;14.27;;
43744;SDS011;29359;53.048;8.732;2024-02-21T02:47:00;31.23;;;13.70;;
43744;SDS011;29359;53.048;8.732;2024-02-21T02:49:02;25.00;;;13.18;;
43744;SDS011;29359;53.048;8.732;2024-02-21T02:51:04;24.77;;;13.15;;
43744;SDS011;29359;53.048;8.732;2024-02-21T02:53:06;24.77;;;13.55;;
43744;SDS011;29359;53.048;8.732;2024-02-21T02:55:08;30.27;;;14.07;;
43744;SDS011;29359;53.048;8.732;2024-02-21T02:57:10;24.75;;;13.20;;
43744;SDS011;29359;53.048;8.732;2024-02-21T02:59:12;27.67;;;14.90;;
43744;SDS011;29359;53.048;8.732;2024-02-21T03:01:14;32.15;;;13.25;;
43744;SDS011;29359;53.048;8.732;2024-02-21T03:03:16;28.02;;;13.80;;
43744;SDS011;29359;53.048;8.732;2024-02-21T03:05:19;30.08;;;13.60;;
43744;SDS011;29359;53.048;8.732;2024-02-21T03:07:22;29.00;;;13.40;;
43744;SDS011;29359;53.048;8.732;2024-02-21T03:09:26;20.10;;;12.02;;
43744;SDS011;29359;53.048;8.732;2024-02-21T03:11:27;24.33;;;12.57;;
43744;SDS011;29359;53.048;8.732;2024-02-21T03:13:31;25.70;;;14.07;;
43744;SDS011;29359;53.048;8.732;2024-02-21T03:15:33;24.77;;;13.27;;
43744;SDS011;29359;53.048;8.732;2024-02-21T03:17:34;27.48;;;13.38;;
43744;SDS011;29359;53.048;8.732;2024-02-21T03:19:36;26.20;;;13.43;;
43744;SDS011;29359;53.048;8.732;2024-02-21T03:21:38;24.38;;;12.80;;
43744;SDS011;29359;53.048;8.732;2024-02-21T03:23:40;23.15;;;13.18;;
43744;SDS011;29359;53.048;8.732;2024-02-21T03:25:42;17.52;;;10.35;;
43744;SDS011;29359;53.048;8.732;2024-02-21T03:27:44;28.40;;;12.98;;
43744;SDS011;29359;53.048;8.732;2024-02-21T03:29:46;22.95;;;12.60;;
43744;SDS011;29359;53.048;8.732;2024-02-21T03:31:47;24.75;;;11.45;;
43744;SDS011;29359;53.048;8.732;2024-02-21T03:33:49;29.48;;;13.60;;
43744;SDS011;29359;53.048;8.732;2024-02-21T03:35:51;24.15;;;12.98;;
43744;SDS011;29359;53.048;8.732;2024-02-21T03:37:53;27.50;;;13.90;;
43744;SDS011;29359;53.048;8.732;2024-02-21T03:39:55;25.65;;;13.05;;
43744;SDS011;29359;53.048;8.732;2024-02-21T03:41:57;19.38;;;12.07;;
43744;SDS011;29359;53.048;8.732;2024-02-21T03:43:59;21.92;;;11.95;;
43744;SDS011;29359;53.048;8.732;2024-02-21T03:46:01;31.60;;;13.02;;
43744;SDS011;29359;53.048;8.732;2024-02-21T03:48:03;23.42;;;12.68;;
43744;SDS011;29359;53.048;8.732;2024-02-21T03:50:06;27.83;;;13.75;;
43744;SDS011;29359;53.048;8.732;2024-02-21T03:52:08;26.60;;;13.27;;
43744;SDS011;29359;53.048;8.732;2024-02-21T03:54:10;26.40;;;12.95;;
43744;SDS011;29359;53.048;8.732;2024-02-21T03:56:12;26.42;;;13.70;;
43744;SDS011;29359;53.048;8.732;2024-02-21T03:58:13;28.35;;;13.73;;
43744;SDS011;29359;53.048;8.732;2024-02-21T04:00:15;23.75;;;13.38;;
43744;SDS011;29359;53.048;8.732;2024-02-21T04:02:17;29.80;;;14.18;;
43744;SDS011;29359;53.048;8.732;2024-02-21T04:04:19;20.77;;;13.02;;
43744;SDS011;29359;53.048;8.732;2024-02-21T04:06:22;27.00;;;13.45;;
43744;SDS011;29359;53.048;8.732;2024-02-21T04:08:24;24.77;;;13.75;;
43744;SDS011;29359;53.048;8.732;2024-02-21T04:10:26;23.88;;;12.82;;
43744;SDS011;29359;53.048;8.732;2024-02-21T04:12:27;27.88;;;13.93;;
43744;SDS011;29359;53.048;8.732;2024-02-21T04:14:29;29.92;;;13.07;;
43744;SDS011;29359;53.048;8.732;2024-02-21T04:16:31;23.17;;;13.20;;
43744;SDS011;29359;53.048;8.732;2024-02-21T04:18:33;25.70;;;12.63;;
43744;SDS011;29359;53.048;8.732;2024-02-21T04:20:35;21.55;;;13.02;;
43744;SDS011;29359;53.048;8.732;2024-02-21T04:22:37;29.75;;;13.25;;
43744;SDS011;29359;53.048;8.732;2024-02-21T04:24:39;22.95;;;12.30;;
43744;SDS011;29359;53.048;8.732;2024-02-21T04:26:40;20.60;;;13.15;;
43744;SDS011;29359;53.048;8.732;2024-02-21T04:28:44;25.23;;;13.07;;
43744;SDS011;29359;53.048;8.732;2024-02-21T04:30:46;22.48;;;12.60;;
43744;SDS011;29359;53.048;8.732;2024-02-21T04:32:48;21.05;;;13.10;;
43744;SDS011;29359;53.048;8.732;2024-02-21T04:34:50;18.60;;;12.45;;
43744;SDS011;29359;53.048;8.732;2024-02-21T04:36:52;18.02;;;12.30;;
43744;SDS011;29359;53.048;8.732;2024-02-21T04:38:54;22.17;;;13.25;;
43744;SDS011;29359;53.048;8.732;2024-02-21T04:40:55;19.27;;;11.60;;
43744;SDS011;29359;53.048;8.732;2024-02-21T04:42:59;15.38;;;11.60;;
43744;SDS011;29359;53.048;8.732;2024-02-21T04:45:01;21.05;;;12.40;;
43744;SDS011;29359;53.048;8.732;2024-02-21T04:47:03;16.92;;;11.55;;
43744;SDS011;29359;53.048;8.732;2024-02-21T04:49:05;19.00;;;12.02;;
43744;SDS011;29359;53.048;8.732;2024-02-21T04:51:07;21.15;;;12.93;;
43744;SDS011;29359;53.048;8.732;2024-02-21T04:53:09;18.45;;;12.40;;
43744;SDS011;29359;53.048;8.732;2024-02-21T04:55:10;16.25;;;11.80;;
43744;SDS011;29359;53.048;8.732;2024-02-21T04:57:12;18.52;;;12.27;;
43744;SDS011;29359;53.048;8.732;2024-02-21T04:59:18;18.92;;;11.07;;
43744;SDS011;29359;53.048;8.732;2024-02-21T05:01:20;14.40;;;11.57;;
43744;SDS011;29359;53.048;8.732;2024-02-21T05:03:22;17.15;;;11.45;;
43744;SDS011;29359;53.048;8.732;2024-02-21T05:05:24;16.40;;;11.40;;
43744;SDS011;29359;53.048;8.732;2024-02-21T05:07:26;18.48;;;11.18;;
43744;SDS011;29359;53.048;8.732;2024-02-21T05:09:27;18.67;;;11.45;;
43744;SDS011;29359;53.048;8.732;2024-02-21T05:11:29;15.90;;;11.05;;
43744;SDS011;29359;53.048;8.732;2024-02-21T05:13:31;16.08;;;10.38;;
43744;SDS011;29359;53.048;8.732;2024-02-21T05:15:33;14.20;;;9.98;;
43744;SDS011;29359;53.048;8.732;2024-02-21T05:17:34;13.20;;;10.55;;
43744;SDS011;29359;53.048;8.732;2024-02-21T05:19:36;13.18;;;10.45;;
43744;SDS011;29359;53.048;8.732;2024-02-21T05:21:38;12.32;;;10.00;;
43744;SDS011;29359;53.048;8.732;2024-02-21T05:23:40;12.70;;;10.02;;
43744;SDS011;29359;53.048;8.732;2024-02-21T05:25:42;12.95;;;9.90;;
43744;SDS011;29359;53.048;8.732;2024-02-21T05:27:44;13.15;;;9.48;;
43744;SDS011;29359;53.048;8.732;2024-02-21T05:29:45;13.32;;;9.25;;
43744;SDS011;29359;53.048;8.732;2024-02-21T05:33:52;11.23;;;9.57;;
43744;SDS011;29359;53.048;8.732;2024-02-21T05:35:54;12.10;;;9.20;;
43744;SDS011;29359;53.048;8.732;2024-02-21T05:37:56;12.30;;;9.10;;
43744;SDS011;29359;53.048;8.732;2024-02-21T05:39:58;9.98;;;8.90;;
43744;SDS011;29359;53.048;8.732;2024-02-21T05:42:00;10.25;;;8.38;;
43744;SDS011;29359;53.048;8.732;2024-02-21T05:44:01;12.20;;;8.55;;
43744;SDS011;29359;53.048;8.732;2024-02-21T05:46:04;12.30;;;9.43;;
43744;SDS011;29359;53.048;8.732;2024-02-21T05:48:06;12.85;;;8.88;;
43744;SDS011;29359;53.048;8.732;2024-02-21T05:50:08;10.10;;;8.77;;
43744;SDS011;29359;53.048;8.732;2024-02-21T05:52:11;9.30;;;8.32;;
43744;SDS011;29359;53.048;8.732;2024-02-21T05:54:13;10.25;;;8.45;;
43744;SDS011;29359;53.048;8.732;2024-02-21T05:56:15;10.57;;;8.70;;
43744;SDS011;29359;53.048;8.732;2024-02-21T05:58:17;9.25;;;7.82;;
43744;SDS011;29359;53.048;8.732;2024-02-21T06:00:18;10.93;;;8.88;;
43744;SDS011;29359;53.048;8.732;2024-02-21T06:02:20;11.60;;;9.02;;
43744;SDS011;29359;53.048;8.732;2024-02-21T06:04:23;9.77;;;8.43;;
43744;SDS011;29359;53.048;8.732;2024-02-21T06:06:25;10.98;;;9.20;;
43744;SDS011;29359;53.048;8.732;2024-02-21T06:08:27;12.15;;;8.95;;
43744;SDS011;29359;53.048;8.732;2024-02-21T06:10:28;13.95;;;9.60;;
43744;SDS011;29359;53.048;8.732;2024-02-21T06:12:30;11.35;;;8.63;;
43744;SDS011;29359;53.048;8.732;2024-02-21T06:14:32;11.90;;;8.82;;
43744;SDS011;29359;53.048;8.732;2024-02-21T06:16:34;13.40;;;8.48;;
43744;SDS011;29359;53.048;8.732;2024-02-21T06:18:36;9.57;;;8.57;;
43744;SDS011;29359;53.048;8.732;2024-02-21T06:20:41;12.90;;;9.38;;
43744;SDS011;29359;53.048;8.732;2024-02-21T06:22:43;13.13;;;9.13;;
43744;SDS011;29359;53.048;8.732;2024-02-21T06:24:45;13.35;;;9.65;;
43744;SDS011;29359;53.048;8.732;2024-02-21T06:26:47;11.52;;;9.55;;
43744;SDS011;29359;53.048;8.732;2024-02-21T06:28:48;13.05;;;9.18;;
43744;SDS011;29359;53.048;8.732;2024-02-21T06:30:50;10.90;;;9.10;;
43744;SDS011;29359;53.048;8.732;2024-02-21T06:32:52;10.95;;;9.27;;
43744;SDS011;29359;53.048;8.732;2024-02-21T06:34:57;11.90;;;10.10;;
43744;SDS011;29359;53.048;8.732;2024-02-21T06:36:59;12.15;;;9.40;;
43744;SDS011;29359;53.048;8.732;2024-02-21T06:39:01;10.35;;;9.35;;
43744;SDS011;29359;53.048;8.732;2024-02-21T06:41:03;15.38;;;10.43;;
43744;SDS011;29359;53.048;8.732;2024-02-21T06:43:05;13.02;;;10.88;;
43744;SDS011;29359;53.048;8.732;2024-02-21T06:45:07;11.23;;;9.60;;
43744;SDS011;29359;53.048;8.732;2024-02-21T06:47:10;11.48;;;9.82;;
43744;SDS011;29359;53.048;8.732;2024-02-21T06:49:11;16.38;;;10.95;;
43744;SDS011;29359;53.048;8.732;2024-02-21T06:51:18;13.18;;;10.90;;
43744;SDS011;29359;53.048;8.732;2024-02-21T06:53:20;13.57;;;10.50;;
43744;SDS011;29359;53.048;8.732;2024-02-21T06:55:21;14.52;;;11.05;;
43744;SDS011;29359;53.048;8.732;2024-02-21T06:57:23;14.07;;;10.93;;
43744;SDS011;29359;53.048;8.732;2024-02-21T06:59:25;16.25;;;10.73;;
43744;SDS011;29359;53.048;8.732;2024-02-21T07:01:27;18.45;;;12.32;;
43744;SDS011;29359;53.048;8.732;2024-02-21T07:03:28;18.75;;;11.45;;
43744;SDS011;29359;53.048;8.732;2024-02-21T07:05:30;16.98;;;12.20;;
43744;SDS011;29359;53.048;8.732;2024-02-21T07:07:32;13.80;;;11.68;;
43744;SDS011;29359;53.048;8.732;2024-02-21T07:09:36;12.80;;;11.27;;
43744;SDS011;29359;53.048;8.732;2024-02-21T07:11:38;15.93;;;12.43;;
43744;SDS011;29359;53.048;8.732;2024-02-21T07:13:40;16.17;;;11.63;;
43744;SDS011;29359;53.048;8.732;2024-02-21T07:15:42;18.02;;;11.70;;
43744;SDS011;29359;53.048;8.732;2024-02-21T07:17:44;18.55;;;12.98;;
43744;SDS011;29359;53.048;8.732;2024-02-21T07:19:45;17.75;;;12.65;;
43744;SDS011;29359;53.048;8.732;2024-02-21T07:21:47;19.13;;;12.50;;
43744;SDS011;29359;53.048;8.732;2024-02-21T07:23:49;16.13;;;12.45;;
43744;SDS011;29359;53.048;8.732;2024-02-21T07:25:51;23.85;;;12.25;;
43744;SDS011;29359;53.048;8.732;2024-02-21T07:27:53;16.75;;;12.40;;
43744;SDS011;29359;53.048;8.732;2024-02-21T07:29:54;18.63;;;12.68;;
43744;SDS011;29359;53.048;8.732;2024-02-21T07:31:56;19.45;;;12.13;;
43744;SDS011;29359;53.048;8.732;2024-02-21T07:33:58;22.17;;;12.75;;
43744;SDS011;29359;53.048;8.732;2024-02-21T07:36:00;20.33;;;13.63;;
43744;SDS011;29359;53.048;8.732;2024-02-21T07:38:02;20.05;;;13.93;;
43744;SDS011;29359;53.048;8.732;2024-02-21T07:40:05;20.30;;;13.52;;
43744;SDS011;29359;53.048;8.732;2024-02-21T07:42:08;25.25;;;14.88;;
43744;SDS011;29359;53.048;8.732;2024-02-21T07:44:10;22.40;;;13.73;;
43744;SDS011;29359;53.048;8.732;2024-02-21T07:46:12;25.33;;;15.23;;
43744;SDS011;29359;53.048;8.732;2024-02-21T07:48:13;31.52;;;14.60;;
43744;SDS011;29359;53.048;8.732;2024-02-21T07:50:15;23.85;;;15.57;;
43744;SDS011;29359;53.048;8.732;2024-02-21T07:52:17;29.50;;;16.23;;
43744;SDS011;29359;53.048;8.732;2024-02-21T07:54:20;28.15;;;16.67;;
43744;SDS011;29359;53.048;8.732;2024-02-21T07:56:22;32.75;;;15.85;;
43744;SDS011;29359;53.048;8.732;2024-02-21T07:58:23;32.17;;;16.92;;
43744;SDS011;29359;53.048;8.732;2024-02-21T08:00:25;36.90;;;17.40;;
43744;SDS011;29359;53.048;8.732;2024-02-21T08:02:27;28.55;;;16.73;;
43744;SDS011;29359;53.048;8.732;2024-02-21T08:04:29;36.83;;;17.20;;
43744;SDS011;29359;53.048;8.732;2024-02-21T08:06:31;34.13;;;17.73;;
43744;SDS011;29359;53.048;8.732;2024-02-21T08:08:33;35.05;;;18.08;;
43744;SDS011;29359;53.048;8.732;2024-02-21T08:10:35;30.05;;;17.55;;
43744;SDS011;29359;53.048;8.732;2024-02-21T08:12:37;31.52;;;16.08;;
43744;SDS011;29359;53.048;8.732;2024-02-21T08:14:40;29.27;;;16.88;;
43744;SDS011;29359;53.048;8.732;2024-02-21T08:16:42;39.70;;;18.88;;
43744;SDS011;29359;53.048;8.732;2024-02-21T08:18:44;32.58;;;17.73;;
43744;SDS011;29359;53.048;8.732;2024-02-21T08:20:46;35.75;;;17.15;;
43744;SDS011;29359;53.048;8.732;2024-02-21T08:22:48;30.88;;;16.17;;
43744;SDS011;29359;53.048;8.732;2024-02-21T08:24:49;28.75;;;16.88;;
43744;SDS011;29359;53.048;8.732;2024-02-21T08:26:51;36.35;;;17.73;;
43744;SDS011;29359;53.048;8.732;2024-02-21T08:28:53;31.90;;;17.67;;
43744;SDS011;29359;53.048;8.732;2024-02-21T08:30:55;35.33;;;18.55;;
43744;SDS011;29359;53.048;8.732;2024-02-21T08:32:57;25.85;;;16.33;;
43744;SDS011;29359;53.048;8.732;2024-02-21T08:34:59;33.88;;;17.40;;
43744;SDS011;29359;53.048;8.732;2024-02-21T08:37:01;29.40;;;15.55;;
43744;SDS011;29359;53.048;8.732;2024-02-21T08:39:03;28.55;;;15.35;;
43744;SDS011;29359;53.048;8.732;2024-02-21T08:41:06;27.63;;;14.88;;
43744;SDS011;29359;53.048;8.732;2024-02-21T08:43:08;33.60;;;15.70;;
43744;SDS011;29359;53.048;8.732;2024-02-21T08:45:10;30.85;;;15.80;;
43744;SDS011;29359;53.048;8.732;2024-02-21T08:47:12;31.63;;;15.55;;
43744;SDS011;29359;53.048;8.732;2024-02-21T08:49:14;28.10;;;15.18;;
43744;SDS011;29359;53.048;8.732;2024-02-21T08:51:15;35.97;;;14.10;;
43744;SDS011;29359;53.048;8.732;2024-02-21T08:53:17;24.73;;;14.20;;
43744;SDS011;29359;53.048;8.732;2024-02-21T08:55:19;27.45;;;14.73;;
43744;SDS011;29359;53.048;8.732;2024-02-21T08:57:21;32.42;;;14.48;;
43744;SDS011;29359;53.048;8.732;2024-02-21T08:59:23;27.67;;;14.70;;
43744;SDS011;29359;53.048;8.732;2024-02-21T09:01:26;26.63;;;14.23;;
43744;SDS011;29359;53.048;8.732;2024-02-21T09:03:28;28.25;;;14.75;;
43744;SDS011;29359;53.048;8.732;2024-02-21T09:05:30;27.05;;;13.27;;
43744;SDS011;29359;53.048;8.732;2024-02-21T09:07:32;22.88;;;12.43;;
43744;SDS011;29359;53.048;8.732;2024-02-21T09:09:34;28.58;;;13.63;;
43744;SDS011;29359;53.048;8.732;2024-02-21T09:11:36;29.88;;;14.68;;
43744;SDS011;29359;53.048;8.732;2024-02-21T09:13:38;25.48;;;14.50;;
43744;SDS011;29359;53.048;8.732;2024-02-21T09:15:40;30.75;;;13.70;;
43744;SDS011;29359;53.048;8.732;2024-02-21T09:17:41;32.83;;;15.57;;
43744;SDS011;29359;53.048;8.732;2024-02-21T09:19:43;23.73;;;12.90;;
43744;SDS011;29359;53.048;8.732;2024-02-21T09:21:45;35.63;;;14.30;;
43744;SDS011;29359;53.048;8.732;2024-02-21T09:23:47;27.27;;;13.07;;
43744;SDS011;29359;53.048;8.732;2024-02-21T09:25:49;28.73;;;12.68;;
43744;SDS011;29359;53.048;8.732;2024-02-21T09:27:54;27.48;;;14.43;;
43744;SDS011;29359;53.048;8.732;2024-02-21T09:29:56;23.33;;;12.90;;
43744;SDS011;29359;53.048;8.732;2024-02-21T09:31:58;22.30;;;13.05;;
43744;SDS011;29359;53.048;8.732;2024-02-21T09:34:01;21.75;;;12.10;;
43744;SDS011;29359;53.048;8.732;2024-02-21T09:36:04;22.58;;;13.75;;
43744;SDS011;29359;53.048;8.732;2024-02-21T09:38:07;23.48;;;12.73;;
43744;SDS011;29359;53.048;8.732;2024-02-21T09:40:08;24.83;;;12.10;;
43744;SDS011;29359;53.048;8.732;2024-02-21T09:42:11;27.17;;;11.65;;
43744;SDS011;29359;53.048;8.732;2024-02-21T09:44:13;26.20;;;13.65;;
43744;SDS011;29359;53.048;8.732;2024-02-21T09:46:16;20.35;;;11.75;;
43744;SDS011;29359;53.048;8.732;2024-02-21T09:50:53;24.08;;;12.13;;
43744;SDS011;29359;53.048;8.732;2024-02-21T09:52:57;22.60;;;11.43;;
43744;SDS011;29359;53.048;8.732;2024-02-21T09:55:01;22.23;;;12.00;;
43744;SDS011;29359;53.048;8.732;2024-02-21T09:57:03;22.58;;;11.00;;
43744;SDS011;29359;53.048;8.732;2024-02-21T09:59:06;23.17;;;11.85;;
43744;SDS011;29359;53.048;8.732;2024-02-21T10:01:08;19.20;;;11.70;;
43744;SDS011;29359;53.048;8.732;2024-02-21T10:03:29;22.67;;;10.05;;
43744;SDS011;29359;53.048;8.732;2024-02-21T10:05:31;20.23;;;11.77;;
43744;SDS011;29359;53.048;8.732;2024-02-21T10:07:33;18.98;;;11.85;;
43744;SDS011;29359;53.048;8.732;2024-02-21T10:09:35;24.40;;;10.68;;
43744;SDS011;29359;53.048;8.732;2024-02-21T10:11:37;21.52;;;11.80;;
43744;SDS011;29359;53.048;8.732;2024-02-21T10:13:39;18.20;;;10.57;;
43744;SDS011;29359;53.048;8.732;2024-02-21T10:15:42;21.48;;;11.45;;
43744;SDS011;29359;53.048;8.732;2024-02-21T10:17:44;21.13;;;10.85;;
43744;SDS011;29359;53.048;8.732;2024-02-21T10:19:45;15.85;;;10.98;;
43744;SDS011;29359;53.048;8.732;2024-02-21T10:24:05;25.77;;;11.15;;
43744;SDS011;29359;53.048;8.732;2024-02-21T10:26:07;21.45;;;10.20;;
43744;SDS011;29359;53.048;8.732;2024-02-21T10:28:11;20.63;;;10.52;;
43744;SDS011;29359;53.048;8.732;2024-02-21T10:30:14;19.17;;;9.77;;
43744;SDS011;29359;53.048;8.732;2024-02-21T10:32:16;21.08;;;9.57;;
43744;SDS011;29359;53.048;8.732;2024-02-21T10:34:18;17.58;;;10.27;;
43744;SDS011;29359;53.048;8.732;2024-02-21T10:36:20;15.20;;;9.18;;
43744;SDS011;29359;53.048;8.732;2024-02-21T10:38:22;17.88;;;9.45;;
43744;SDS011;29359;53.048;8.732;2024-02-21T10:40:24;18.98;;;10.23;;
43744;SDS011;29359;53.048;8.732;2024-02-21T10:42:32;17.13;;;9.88;;
43744;SDS011;29359;53.048;8.732;2024-02-21T10:44:37;20.77;;;9.45;;
43744;SDS011;29359;53.048;8.732;2024-02-21T10:46:44;16.42;;;9.32;;
43744;SDS011;29359;53.048;8.732;2024-02-21T10:48:47;21.52;;;9.85;;
43744;SDS011;29359;53.048;8.732;2024-02-21T10:51:26;18.02;;;9.30;;
43744;SDS011;29359;53.048;8.732;2024-02-21T10:56:01;15.68;;;8.75;;
43744;SDS011;29359;53.048;8.732;2024-02-21T10:58:14;19.60;;;8.43;;
43744;SDS011;29359;53.048;8.732;2024-02-21T11:00:17;16.63;;;8.65;;
43744;SDS011;29359;53.048;8.732;2024-02-21T11:02:19;19.27;;;9.07;;
43744;SDS011;29359;53.048;8.732;2024-02-21T11:04:21;16.20;;;9.32;;
43744;SDS011;29359;53.048;8.732;2024-02-21T11:06:24;17.00;;;8.25;;
43744;SDS011;29359;53.048;8.732;2024-02-21T11:08:27;14.20;;;8.40;;
43744;SDS011;29359;53.048;8.732;2024-02-21T11:10:29;13.07;;;8.00;;
43744;SDS011;29359;53.048;8.732;2024-02-21T11:12:32;17.08;;;8.18;;
43744;SDS011;29359;53.048;8.732;2024-02-21T11:14:37;13.27;;;7.72;;
43744;SDS011;29359;53.048;8.732;2024-02-21T11:16:41;14.80;;;7.40;;
43744;SDS011;29359;53.048;8.732;2024-02-21T11:18:44;13.65;;;7.28;;
43744;SDS011;29359;53.048;8.732;2024-02-21T11:20:49;18.45;;;7.00;;
43744;SDS011;29359;53.048;8.732;2024-02-21T11:22:52;11.18;;;7.18;;
43744;SDS011;29359;53.048;8.732;2024-02-21T11:25:06;14.98;;;7.43;;
43744;SDS011;29359;53.048;8.732;2024-02-21T11:29:22;14.18;;;6.45;;
43744;SDS011;29359;53.048;8.732;2024-02-21T11:31:25;17.77;;;6.90;;
43744;SDS011;29359;53.048;8.732;2024-02-21T11:33:31;8.98;;;5.53;;
43744;SDS011;29359;53.048;8.732;2024-02-21T11:35:40;11.40;;;5.68;;
43744;SDS011;29359;53.048;8.732;2024-02-21T11:37:42;12.80;;;6.38;;
43744;SDS011;29359;53.048;8.732;2024-02-21T11:39:47;11.90;;;6.10;;
43744;SDS011;29359;53.048;8.732;2024-02-21T11:42:01;16.88;;;5.53;;
43744;SDS011;29359;53.048;8.732;2024-02-21T11:44:07;10.45;;;6.25;;
43744;SDS011;29359;53.048;8.732;2024-02-21T11:46:08;10.43;;;5.65;;
43744;SDS011;29359;53.048;8.732;2024-02-21T11:48:11;11.60;;;5.75;;
43744;SDS011;29359;53.048;8.732;2024-02-21T11:50:13;13.38;;;5.85;;
43744;SDS011;29359;53.048;8.732;2024-02-21T11:52:18;8.75;;;5.35;;
43744;SDS011;29359;53.048;8.732;2024-02-21T11:54:23;7.82;;;4.80;;
43744;SDS011;29359;53.048;8.732;2024-02-21T11:56:25;10.40;;;5.78;;
43744;SDS011;29359;53.048;8.732;2024-02-21T11:58:27;8.82;;;4.90;;
43744;SDS011;29359;53.048;8.732;2024-02-21T12:00:29;13.88;;;5.28;;
43744;SDS011;29359;53.048;8.732;2024-02-21T12:02:32;10.52;;;5.10;;
43744;SDS011;29359;53.048;8.732;2024-02-21T12:04:34;17.27;;;5.65;;
43744;SDS011;29359;53.048;8.732;2024-02-21T12:06:38;10.10;;;4.75;;
43744;SDS011;29359;53.048;8.732;2024-02-21T12:08:44;12.68;;;4.78;;
43744;SDS011;29359;53.048;8.732;2024-02-21T12:10:46;12.45;;;4.68;;